createdAt,value
2023-04-02T00:02:21.668Z,11.57
2023-04-02T00:05:18.649Z,11.00
2023-04-02T00:07:51.721Z,16.23
2023-04-02T00:10:58.858Z,13.20
2023-04-02T00:13:31.319Z,14.13
2023-04-02T00:16:00.464Z,12.60
2023-04-02T00:18:28.052Z,11.80
2023-04-02T00:21:07.929Z,15.60
2023-04-02T00:23:38.957Z,15.68
2023-04-02T00:26:21.793Z,17.52
2023-04-02T00:28:50.951Z,16.48
2023-04-02T00:31:20.502Z,16.35
2023-04-02T00:33:49.974Z,14.93
2023-04-02T00:36:20.400Z,14.68
2023-04-02T00:38:48.872Z,14.98
2023-04-02T00:41:24.561Z,13.63
2023-04-02T00:43:52.453Z,14.68
2023-04-02T00:46:24.489Z,16.33
2023-04-02T00:48:54.906Z,15.73
2023-04-02T00:51:34.922Z,17.23
2023-04-02T00:54:06.728Z,16.33
2023-04-02T00:56:42.840Z,16.40
2023-04-02T00:59:34.233Z,16.92
2023-04-02T01:02:19.744Z,18.08
2023-04-02T01:04:56.911Z,20.92
2023-04-02T01:07:47.620Z,22.42
2023-04-02T01:10:20.932Z,17.90
2023-04-02T01:12:59.365Z,17.77
2023-04-02T01:15:34.740Z,16.38
2023-04-02T01:21:03.983Z,15.70
2023-04-02T01:23:43.991Z,15.32
2023-04-02T01:26:25.652Z,15.20
2023-04-02T01:29:19.419Z,17.10
2023-04-02T01:31:49.395Z,16.67
2023-04-02T01:34:23.329Z,15.52
2023-04-02T01:37:06.566Z,16.23
2023-04-02T01:40:14.654Z,15.55
2023-04-02T01:43:31.822Z,15.57
2023-04-02T01:46:04.941Z,14.45
2023-04-02T01:48:32.492Z,14.98
2023-04-02T01:51:00.698Z,15.18
2023-04-02T01:53:30.953Z,13.30
2023-04-02T01:56:01.477Z,11.35
2023-04-02T01:58:32.569Z,11.15
2023-04-02T02:01:07.059Z,11.82
2023-04-02T02:03:35.657Z,22.30
2023-04-02T02:06:06.691Z,16.42
2023-04-02T02:08:40.957Z,18.20
2023-04-02T02:11:16.614Z,17.95
2023-04-02T02:13:48.697Z,15.18
2023-04-02T02:16:18.409Z,17.70
2023-04-02T02:18:56.409Z,13.73
2023-04-02T02:21:30.174Z,12.88
2023-04-02T02:23:57.844Z,14.43
2023-04-02T02:26:27.358Z,13.77
2023-04-02T02:28:58.277Z,13.90
2023-04-02T02:31:31.195Z,14.10
2023-04-02T02:34:07.642Z,12.88
2023-04-02T02:36:49.407Z,12.32
2023-04-02T02:39:36.628Z,11.27
2023-04-02T02:42:32.096Z,13.55
2023-04-02T02:45:03.872Z,13.82
2023-04-02T02:47:35.590Z,15.02
2023-04-02T02:50:14.164Z,13.35
2023-04-02T02:52:48.106Z,12.43
2023-04-02T02:55:19.212Z,13.77
2023-04-02T02:58:35.260Z,12.77
2023-04-02T03:01:16.857Z,11.57
2023-04-02T03:03:47.561Z,12.10
2023-04-02T03:06:21.000Z,13.48
2023-04-02T03:09:11.029Z,13.52
2023-04-02T03:11:48.031Z,13.32
2023-04-02T03:14:38.121Z,16.42
2023-04-02T03:17:13.063Z,15.50
2023-04-02T03:19:55.514Z,14.73
2023-04-02T03:22:36.123Z,14.95
2023-04-02T03:25:11.482Z,15.18
2023-04-02T03:27:44.490Z,13.93
2023-04-02T03:30:31.817Z,12.48
2023-04-02T03:33:04.825Z,13.48
2023-04-02T03:36:02.217Z,14.27
2023-04-02T03:38:43.889Z,15.65
2023-04-02T03:41:39.729Z,12.82
2023-04-02T03:44:20.193Z,10.70
2023-04-02T03:46:59.118Z,7.93
2023-04-02T03:49:43.682Z,6.95
2023-04-02T03:52:15.035Z,11.10
2023-04-02T03:54:53.163Z,8.85
2023-04-02T03:57:37.175Z,7.22
2023-04-02T04:00:20.476Z,5.70
2023-04-02T04:03:01.571Z,5.68
2023-04-02T04:05:35.013Z,7.28
2023-04-02T04:08:14.193Z,7.35
2023-04-02T04:10:43.551Z,7.15
2023-04-02T04:13:18.722Z,7.50
2023-04-02T04:15:45.937Z,6.80
2023-04-02T04:18:38.108Z,7.38
2023-04-02T04:21:31.395Z,7.40
2023-04-02T04:24:15.002Z,6.85
2023-04-02T04:26:56.711Z,9.00
2023-04-02T04:29:35.522Z,10.73
2023-04-02T04:32:34.882Z,8.63
2023-04-02T04:35:28.979Z,8.18
2023-04-02T04:38:04.044Z,9.32
2023-04-02T04:43:13.013Z,9.75
2023-04-02T04:46:05.896Z,11.65
2023-04-02T04:48:39.080Z,14.05
2023-04-02T04:51:22.220Z,19.73
2023-04-02T04:53:52.903Z,13.52
2023-04-02T04:56:27.244Z,14.00
2023-04-02T04:59:15.078Z,14.23
2023-04-02T05:01:57.859Z,18.73
2023-04-02T05:04:37.013Z,19.77
2023-04-02T05:07:13.611Z,23.65
2023-04-02T05:10:17.448Z,33.00
2023-04-02T05:13:07.584Z,49.33
2023-04-02T05:15:55.168Z,37.85
2023-04-02T05:18:33.176Z,41.88
2023-04-02T05:21:18.095Z,45.00
2023-04-02T05:24:23.210Z,31.45
2023-04-02T05:26:52.470Z,30.63
2023-04-02T05:29:29.705Z,23.17
2023-04-02T05:32:09.440Z,14.82
2023-04-02T05:34:41.792Z,18.70
2023-04-02T05:37:19.663Z,17.58
2023-04-02T05:39:53.391Z,19.95
2023-04-02T05:42:29.716Z,20.08
2023-04-02T05:45:19.571Z,17.77
2023-04-02T05:47:51.017Z,16.63
2023-04-02T05:53:10.336Z,17.52
2023-04-02T05:56:15.778Z,18.67
2023-04-02T05:59:21.824Z,18.10
2023-04-02T06:02:04.546Z,20.75
2023-04-02T06:04:45.080Z,21.05
2023-04-02T06:07:23.540Z,30.15
2023-04-02T06:10:06.122Z,28.60
2023-04-02T06:12:45.552Z,22.15
2023-04-02T06:15:18.643Z,22.48
2023-04-02T06:18:01.664Z,26.17
2023-04-02T06:20:30.926Z,21.45
2023-04-02T06:23:12.822Z,23.15
2023-04-02T06:25:46.585Z,20.70
2023-04-02T06:28:29.538Z,48.53
2023-04-02T06:31:03.413Z,40.83
2023-04-02T06:33:36.640Z,20.23
2023-04-02T06:36:06.645Z,19.02
2023-04-02T06:38:36.704Z,20.15
2023-04-02T06:41:15.880Z,25.65
2023-04-02T06:44:06.862Z,23.58
2023-04-02T06:46:52.624Z,23.40
2023-04-02T06:49:29.031Z,22.23
2023-04-02T06:52:02.102Z,19.20
2023-04-02T06:54:31.562Z,19.85
2023-04-02T06:57:07.566Z,16.10
2023-04-02T06:59:39.053Z,12.93
2023-04-02T07:02:35.948Z,11.38
2023-04-02T07:05:09.592Z,11.23
2023-04-02T07:07:40.901Z,11.30
2023-04-02T07:10:12.895Z,11.57
2023-04-02T07:12:40.463Z,12.15
2023-04-02T07:15:11.255Z,11.73
2023-04-02T07:17:38.788Z,12.60
2023-04-02T07:20:07.433Z,15.20
2023-04-02T07:22:34.675Z,20.50
2023-04-02T07:25:03.263Z,24.00
2023-04-02T07:27:30.954Z,18.50
2023-04-02T07:29:58.666Z,24.17
2023-04-02T07:32:26.366Z,29.23
2023-04-02T07:34:53.824Z,21.83
2023-04-02T07:37:21.213Z,17.33
2023-04-02T07:39:48.709Z,15.80
2023-04-02T07:42:15.980Z,11.57
2023-04-02T07:44:45.898Z,13.50
2023-04-02T07:47:13.170Z,7.85
2023-04-02T07:49:41.045Z,7.80
2023-04-02T07:52:08.468Z,7.47
2023-04-02T07:54:40.071Z,6.70
2023-04-02T07:57:07.291Z,8.68
2023-04-02T07:59:34.886Z,10.63
2023-04-02T08:02:03.016Z,8.88
2023-04-02T08:04:30.700Z,10.65
2023-04-02T08:06:58.000Z,10.20
2023-04-02T08:09:25.726Z,9.43
2023-04-02T08:11:52.996Z,8.95
2023-04-02T08:14:20.814Z,6.18
2023-04-02T08:16:53.841Z,5.60
2023-04-02T08:19:22.259Z,6.40
2023-04-02T08:21:51.771Z,8.25
2023-04-02T08:24:19.840Z,8.23
2023-04-02T08:26:48.740Z,15.90
2023-04-02T08:29:16.446Z,20.45
2023-04-02T08:31:43.699Z,6.05
2023-04-02T08:34:11.374Z,4.20
2023-04-02T08:36:41.575Z,6.15
2023-04-02T08:39:12.961Z,5.40
2023-04-02T08:41:58.740Z,5.07
2023-04-02T08:44:53.784Z,4.82
2023-04-02T08:47:26.221Z,6.70
2023-04-02T08:49:57.973Z,7.72
2023-04-02T08:52:28.970Z,6.22
2023-04-02T08:54:58.439Z,3.47
2023-04-02T08:57:37.038Z,4.72
2023-04-02T09:00:17.023Z,3.35
2023-04-02T09:02:57.951Z,4.43
2023-04-02T09:05:30.063Z,3.75
2023-04-02T09:07:59.845Z,11.32
2023-04-02T09:10:37.886Z,10.32
2023-04-02T09:13:17.008Z,4.35
2023-04-02T09:15:45.239Z,2.88
2023-04-02T09:18:16.904Z,3.05
2023-04-02T09:20:45.864Z,3.28
2023-04-02T09:23:22.908Z,2.72
2023-04-02T09:26:03.728Z,2.20
2023-04-02T09:28:33.893Z,2.50
2023-04-02T09:31:25.211Z,2.78
2023-04-02T09:33:54.833Z,2.83
2023-04-02T09:36:39.219Z,2.78
2023-04-02T09:39:17.840Z,3.28
2023-04-02T09:41:55.702Z,4.68
2023-04-02T09:44:32.686Z,4.20
2023-04-02T09:47:06.051Z,3.22
2023-04-02T09:49:38.872Z,3.67
2023-04-02T09:52:18.261Z,3.33
2023-04-02T09:54:46.744Z,4.43
2023-04-02T09:57:33.670Z,4.05
2023-04-02T10:00:39.713Z,4.75
2023-04-02T10:03:07.186Z,5.32
2023-04-02T10:08:19.146Z,5.43
2023-04-02T10:10:52.937Z,4.10
2023-04-02T10:13:26.587Z,3.13
2023-04-02T10:15:56.434Z,1.95
2023-04-02T10:18:35.920Z,1.60
2023-04-02T10:21:05.057Z,1.90
2023-04-02T10:23:33.204Z,1.58
2023-04-02T10:26:08.281Z,0.85
2023-04-02T10:28:47.867Z,1.02
2023-04-02T10:31:28.211Z,1.10
2023-04-02T10:34:03.373Z,1.15
2023-04-02T10:36:51.234Z,1.23
2023-04-02T10:39:31.613Z,1.40
2023-04-02T10:42:11.284Z,1.10
2023-04-02T10:44:48.293Z,0.88
2023-04-02T10:47:27.797Z,1.00
2023-04-02T10:50:02.412Z,0.45
2023-04-02T10:52:45.177Z,1.23
2023-04-02T10:55:24.074Z,0.88
2023-04-02T10:57:54.420Z,1.17
2023-04-02T11:00:28.843Z,1.33
2023-04-02T11:03:09.481Z,0.82
2023-04-02T11:05:49.342Z,1.60
2023-04-02T11:08:22.302Z,1.50
2023-04-02T11:11:18.137Z,1.50
2023-04-02T11:13:53.619Z,0.80
2023-04-02T11:16:21.976Z,1.50
2023-04-02T11:19:07.960Z,1.10
2023-04-02T11:21:51.121Z,1.48
2023-04-02T11:24:33.930Z,1.25
2023-04-02T11:27:10.502Z,2.22
2023-04-02T11:29:42.361Z,1.17
2023-04-02T11:32:16.217Z,1.05
2023-04-02T11:35:03.098Z,1.67
2023-04-02T11:37:38.805Z,1.15
2023-04-02T11:40:12.344Z,1.10
2023-04-02T11:42:43.732Z,1.70
2023-04-02T11:45:23.190Z,1.70
2023-04-02T11:48:00.136Z,2.17
2023-04-02T11:50:32.236Z,1.85
2023-04-02T11:53:02.748Z,1.30
2023-04-02T11:55:35.527Z,2.00
2023-04-02T11:58:25.109Z,1.77
2023-04-02T12:01:11.982Z,2.97
2023-04-02T12:04:01.303Z,2.42
2023-04-02T12:06:47.378Z,1.77
2023-04-02T12:09:31.165Z,1.70
2023-04-02T12:12:01.193Z,1.48
2023-04-02T12:14:48.504Z,1.35
2023-04-02T12:17:17.926Z,1.80
2023-04-02T12:19:52.697Z,1.35
2023-04-02T12:22:24.118Z,1.20
2023-04-02T12:24:55.782Z,1.48
2023-04-02T12:27:28.008Z,2.15
2023-04-02T12:30:11.130Z,1.63
2023-04-02T12:32:38.977Z,1.73
2023-04-02T12:35:08.480Z,1.88
2023-04-02T12:37:35.830Z,2.40
2023-04-02T12:40:16.379Z,2.25
2023-04-02T12:42:43.626Z,3.00
2023-04-02T12:45:28.593Z,1.98
2023-04-02T12:47:58.314Z,1.98
2023-04-02T12:50:26.490Z,2.20
2023-04-02T12:52:55.771Z,2.40
2023-04-02T12:55:25.628Z,2.72
2023-04-02T12:57:57.991Z,2.47
2023-04-02T13:00:25.750Z,1.83
2023-04-02T13:03:05.358Z,3.10
2023-04-02T13:05:34.711Z,2.20
2023-04-02T13:08:03.085Z,2.22
2023-04-02T13:10:30.642Z,2.33
2023-04-02T13:13:03.058Z,2.17
2023-04-02T13:15:33.318Z,2.50
2023-04-02T13:18:13.838Z,2.10
2023-04-02T13:20:43.242Z,2.22
2023-04-02T13:23:29.048Z,2.45
2023-04-02T13:25:58.975Z,2.88
2023-04-02T13:28:26.509Z,3.97
2023-04-02T13:30:54.605Z,2.38
2023-04-02T13:33:22.305Z,3.00
2023-04-02T13:35:50.046Z,3.28
2023-04-02T13:38:17.594Z,2.92
2023-04-02T13:40:45.781Z,3.42
2023-04-02T13:43:19.365Z,3.53
2023-04-02T13:45:53.310Z,3.10
2023-04-02T13:48:24.650Z,3.70
2023-04-02T13:50:53.244Z,3.38
2023-04-02T13:53:35.096Z,3.38
2023-04-02T13:56:04.050Z,4.05
2023-04-02T13:58:31.207Z,3.90
2023-04-02T14:00:59.594Z,3.80
2023-04-02T14:03:27.255Z,3.42
2023-04-02T14:06:22.483Z,3.85
2023-04-02T14:09:21.209Z,3.75
2023-04-02T14:12:06.220Z,3.20
2023-04-02T14:15:08.810Z,2.97
2023-04-02T14:18:03.481Z,2.78
2023-04-02T14:20:51.637Z,4.00
2023-04-02T14:23:47.830Z,3.72
2023-04-02T14:26:39.853Z,4.18
2023-04-02T14:29:22.224Z,4.25
2023-04-02T14:32:20.709Z,4.78
2023-04-02T14:35:11.200Z,4.50
2023-04-02T14:37:44.482Z,4.15
2023-04-02T14:40:23.354Z,5.57
2023-04-02T14:43:05.304Z,5.45
2023-04-02T14:45:44.805Z,5.15
2023-04-02T14:48:21.726Z,6.18
2023-04-02T14:50:58.123Z,4.82
2023-04-02T14:53:49.233Z,5.85
2023-04-02T14:56:20.365Z,5.40
2023-04-02T14:59:09.242Z,4.50
2023-04-02T15:01:44.063Z,5.13
2023-04-02T15:04:18.037Z,5.70
2023-04-02T15:06:50.293Z,5.88
2023-04-02T15:09:25.186Z,5.22
2023-04-02T15:11:57.437Z,4.85
2023-04-02T15:14:34.093Z,4.43
2023-04-02T15:17:01.655Z,4.22
2023-04-02T15:19:29.216Z,3.25
2023-04-02T15:22:09.294Z,4.40
2023-04-02T15:24:39.890Z,4.50
2023-04-02T15:27:27.858Z,3.90
2023-04-02T15:30:16.107Z,4.03
2023-04-02T15:32:44.493Z,3.80
2023-04-02T15:35:34.204Z,5.30
2023-04-02T15:38:19.299Z,4.97
2023-04-02T15:40:58.917Z,4.78
2023-04-02T15:43:48.764Z,4.90
2023-04-02T15:46:47.160Z,7.60
2023-04-02T15:49:38.220Z,6.10
2023-04-02T15:52:08.690Z,6.80
2023-04-02T15:54:52.712Z,6.13
2023-04-02T15:57:29.609Z,7.07
2023-04-02T16:00:11.462Z,7.18
2023-04-02T16:03:03.024Z,7.30
2023-04-02T16:06:09.200Z,8.48
2023-04-02T16:08:57.520Z,8.27
2023-04-02T16:11:27.490Z,9.10
2023-04-02T16:14:11.555Z,9.93
2023-04-02T16:16:40.543Z,7.97
2023-04-02T16:19:21.091Z,9.27
2023-04-02T16:21:56.345Z,11.77
2023-04-02T16:24:23.910Z,13.70
2023-04-02T16:27:09.144Z,10.93
2023-04-02T16:30:09.104Z,11.32
2023-04-02T16:33:08.858Z,10.85
2023-04-02T16:36:12.314Z,12.70
2023-04-02T16:39:09.020Z,13.55
2023-04-02T16:42:07.861Z,13.95
2023-04-02T16:44:38.501Z,14.80
2023-04-02T16:47:31.200Z,15.73
2023-04-02T16:50:20.275Z,15.80
2023-04-02T16:53:04.274Z,19.88
2023-04-02T16:55:59.605Z,12.68
2023-04-02T16:58:49.919Z,9.75
2023-04-02T17:01:38.483Z,10.85
2023-04-02T17:04:15.290Z,10.88
2023-04-02T17:06:48.150Z,12.20
2023-04-02T17:09:24.190Z,11.63
2023-04-02T17:11:57.170Z,10.50
2023-04-02T17:14:34.816Z,10.30
2023-04-02T17:17:05.165Z,9.98
2023-04-02T17:19:33.732Z,8.95
2023-04-02T17:22:04.108Z,8.52
2023-04-02T17:24:57.865Z,9.23
2023-04-02T17:27:33.430Z,7.80
2023-04-02T17:30:12.366Z,6.72
2023-04-02T17:32:39.660Z,5.10
2023-04-02T17:35:22.791Z,6.35
2023-04-02T17:37:53.403Z,5.50
2023-04-02T17:40:49.295Z,5.82
2023-04-02T17:43:38.479Z,5.00
2023-04-02T17:47:03.446Z,6.07
2023-04-02T17:49:55.080Z,5.63
2023-04-02T17:52:47.882Z,5.20
2023-04-02T17:55:41.270Z,5.10
2023-04-02T17:58:42.444Z,5.00
2023-04-02T18:01:18.782Z,4.93
2023-04-02T18:03:51.721Z,5.72
2023-04-02T18:06:41.088Z,5.43
2023-04-02T18:09:38.998Z,6.10
2023-04-02T18:12:12.423Z,7.10
2023-04-02T18:15:25.012Z,9.85
2023-04-02T18:18:02.515Z,7.95
2023-04-02T18:20:37.208Z,8.35
2023-04-02T18:23:40.838Z,8.55
2023-04-02T18:26:29.911Z,8.32
2023-04-02T18:29:02.521Z,5.00
2023-04-02T18:31:50.334Z,7.72
2023-04-02T18:34:36.331Z,6.60
2023-04-02T18:37:26.287Z,9.70
2023-04-02T18:40:12.282Z,14.45
2023-04-02T18:42:45.824Z,6.93
2023-04-02T18:45:47.379Z,8.20
2023-04-02T18:48:17.881Z,7.85
2023-04-02T18:50:47.074Z,5.22
2023-04-02T18:53:18.176Z,6.68
2023-04-02T18:56:08.219Z,6.03
2023-04-02T18:58:53.362Z,5.95
2023-04-02T19:01:28.207Z,5.45
2023-04-02T19:04:04.174Z,6.40
2023-04-02T19:06:49.772Z,6.05
2023-04-02T19:09:24.098Z,6.53
2023-04-02T19:11:53.223Z,7.75
2023-04-02T19:14:23.431Z,7.78
2023-04-02T19:17:04.468Z,8.23
2023-04-02T19:19:43.140Z,8.18
2023-04-02T19:22:13.654Z,9.13
2023-04-02T19:25:10.953Z,10.30
2023-04-02T19:30:59.096Z,9.25
2023-04-02T19:33:42.574Z,8.68
2023-04-02T19:36:49.142Z,8.55
2023-04-02T19:39:39.766Z,8.35
2023-04-02T19:42:25.404Z,9.38
2023-04-02T19:44:54.326Z,10.13
2023-04-02T19:47:24.597Z,7.82
2023-04-02T19:49:52.152Z,8.55
2023-04-02T19:52:22.042Z,8.02
2023-04-02T19:54:49.375Z,8.07
2023-04-02T19:57:17.652Z,6.50
2023-04-02T19:59:44.931Z,8.00
2023-04-02T20:02:12.561Z,7.65
2023-04-02T20:04:39.931Z,8.48
2023-04-02T20:07:10.614Z,9.82
2023-04-02T20:09:37.874Z,10.65
2023-04-02T20:12:05.569Z,8.90
2023-04-02T20:14:32.790Z,9.20
2023-04-02T20:17:00.571Z,10.05
2023-04-02T20:19:27.955Z,10.02
2023-04-02T20:21:56.650Z,10.40
2023-04-02T20:24:23.941Z,9.93
2023-04-02T20:26:51.579Z,10.30
2023-04-02T20:29:18.874Z,10.02
2023-04-02T20:31:46.631Z,11.23
2023-04-02T20:34:14.140Z,10.27
2023-04-02T20:36:42.076Z,10.00
2023-04-02T20:39:10.905Z,8.65
2023-04-02T20:41:38.402Z,10.27
2023-04-02T20:44:05.758Z,9.43
2023-04-02T20:46:33.783Z,8.02
2023-04-02T20:49:02.362Z,9.43
2023-04-02T20:51:29.945Z,8.55
2023-04-02T20:53:58.401Z,7.57
2023-04-02T20:56:26.774Z,6.28
2023-04-02T20:58:54.072Z,7.15
2023-04-02T21:01:24.172Z,6.45
2023-04-02T21:03:59.065Z,7.65
2023-04-02T21:06:30.171Z,5.50
2023-04-02T21:08:57.978Z,7.00
2023-04-02T21:11:26.362Z,6.15
2023-04-02T21:13:53.794Z,5.75
2023-04-02T21:16:29.688Z,7.10
2023-04-02T21:18:59.467Z,6.47
2023-04-02T21:21:27.849Z,5.65
2023-04-02T21:23:58.095Z,6.43
2023-04-02T21:26:31.876Z,7.47
2023-04-02T21:29:00.822Z,5.97
2023-04-02T21:31:30.752Z,5.25
2023-04-02T21:33:59.203Z,5.38
2023-04-02T21:36:29.901Z,5.10
2023-04-02T21:38:58.560Z,5.95
2023-04-02T21:41:56.265Z,5.75
2023-04-02T21:44:24.797Z,4.43
2023-04-02T21:46:54.123Z,5.47
2023-04-02T21:49:23.175Z,5.38
2023-04-02T21:51:54.546Z,4.38
2023-04-02T21:54:21.773Z,3.75
2023-04-02T21:56:50.225Z,4.22
2023-04-02T21:59:18.233Z,4.93
2023-04-02T22:01:51.226Z,4.53
2023-04-02T22:04:26.647Z,4.38
2023-04-02T22:06:54.393Z,4.47
2023-04-02T22:09:24.174Z,4.40
2023-04-02T22:11:55.591Z,3.90
2023-04-02T22:14:23.397Z,4.03
2023-04-02T22:16:52.136Z,4.40
2023-04-02T22:19:20.037Z,4.30
2023-04-02T22:21:47.497Z,3.33
2023-04-02T22:24:18.823Z,4.07
2023-04-02T22:26:46.942Z,3.78
2023-04-02T22:29:14.659Z,3.58
2023-04-02T22:31:41.962Z,4.43
2023-04-02T22:34:09.515Z,3.80
2023-04-02T22:36:36.750Z,4.65
2023-04-02T22:39:07.121Z,4.53
2023-04-02T22:41:34.336Z,4.90
2023-04-02T22:44:02.575Z,4.15
2023-04-02T22:46:31.208Z,4.65
2023-04-02T22:48:58.861Z,4.55
2023-04-02T22:51:28.087Z,4.55
2023-04-02T22:53:56.639Z,4.65
2023-04-02T22:56:27.744Z,5.13
2023-04-02T22:58:55.402Z,4.28
2023-04-02T23:01:27.421Z,4.35
2023-04-02T23:03:55.632Z,4.03
2023-04-02T23:06:23.866Z,3.47
2023-04-02T23:08:51.942Z,3.75
2023-04-02T23:11:24.829Z,3.72
2023-04-02T23:13:54.697Z,3.75
2023-04-02T23:16:23.142Z,3.85
2023-04-02T23:18:51.486Z,4.70
2023-04-02T23:21:21.053Z,4.30
2023-04-02T23:23:51.924Z,3.38
2023-04-02T23:26:24.485Z,3.70
2023-04-02T23:28:52.016Z,3.17
2023-04-02T23:31:21.701Z,2.22
2023-04-02T23:33:50.784Z,2.42
2023-04-02T23:36:30.787Z,2.63
2023-04-02T23:39:01.470Z,1.92
2023-04-02T23:41:30.589Z,2.00
2023-04-02T23:43:58.849Z,1.65
2023-04-02T23:46:26.755Z,1.70
2023-04-02T23:48:55.732Z,1.23
2023-04-02T23:51:23.491Z,1.90
2023-04-02T23:53:52.397Z,1.65
2023-04-02T23:56:20.933Z,1.50
2023-04-02T23:58:49.121Z,1.38
